Time;durP1;ratioP1;P1;durP2;ratioP2;P2;SDS_P1;SDS_P2;PMS_P1;PMS_P2;Temp;Humidity;BMP_temperature;BMP_pressure;BME280_temperature;BME280_humidity;BME280_pressure;Samples;Min_cycle;Max_cycle;Signal;HPM_P1;HPM_P2
2023/02/16 00:01:32;;;;;;;28.27;15.55;;;3.00;99.30;;;;;;5039448;28;20032;-66
2023/02/16 00:03:58;;;;;;;33.78;18.88;;;3.00;99.00;;;;;;5036391;28;20047;-64
2023/02/16 00:06:25;;;;;;;31.60;17.30;;;3.00;98.70;;;;;;5038031;28;20366;-64
2023/02/16 00:08:54;;;;;;;33.00;17.45;;;3.00;98.60;;;;;;5038044;28;20686;-64
2023/02/16 00:14:18;;;;;;;;;;;3.00;97.70;;;;;;5032689;28;20998;-63
2023/02/16 00:16:44;;;;;;;29.17;15.80;;;3.00;97.20;;;;;;5022470;28;19913;-65
2023/02/16 00:19:23;;;;;;;31.73;17.42;;;2.90;97.40;;;;;;5036038;28;20440;-65
2023/02/16 00:21:52;;;;;;;38.33;17.88;;;2.80;97.60;;;;;;5032467;28;20037;-65
2023/02/16 00:24:18;;;;;;;33.60;18.30;;;2.70;97.50;;;;;;5032646;28;20147;-66
2023/02/16 00:26:45;;;;;;;36.60;18.20;;;2.80;97.40;;;;;;5039150;28;20861;-66
2023/02/16 00:29:26;;;;;;;30.83;17.60;;;2.70;96.60;;;;;;5034456;28;20389;-66
2023/02/16 00:31:54;;;;;;;34.15;18.02;;;2.70;96.60;;;;;;5038493;28;20033;-66
2023/02/16 00:34:36;;;;;;;33.15;17.98;;;2.60;96.80;;;;;;5014016;28;20499;-66
2023/02/16 00:37:08;;;;;;;30.02;15.82;;;2.60;96.90;;;;;;5021049;28;20034;-66
2023/02/16 00:39:35;;;;;;;37.85;19.40;;;2.50;97.10;;;;;;5016076;28;20842;-66
2023/02/16 00:42:05;;;;;;;30.45;16.92;;;2.50;97.30;;;;;;5021139;28;20037;-66
2023/02/16 00:44:41;;;;;;;35.47;17.50;;;2.50;97.40;;;;;;5036097;28;20045;-66
2023/02/16 00:47:42;;;;;;;33.35;17.63;;;2.50;97.40;;;;;;5031425;28;20044;-66
2023/02/16 00:50:30;;;;;;;32.70;17.40;;;2.40;97.50;;;;;;5034386;28;20041;-66
2023/02/16 00:52:57;;;;;;;33.90;17.10;;;2.40;97.80;;;;;;5035568;28;20037;-66
2023/02/16 00:55:28;;;;;;;31.02;16.00;;;2.40;97.70;;;;;;5032784;28;20132;-66
2023/02/16 00:58:13;;;;;;;29.27;14.35;;;2.40;97.90;;;;;;5019443;28;20033;-66
2023/02/16 01:00:41;;;;;;;29.73;13.90;;;2.30;98.10;;;;;;5018554;28;20025;-65
2023/02/16 01:03:21;;;;;;;31.48;15.30;;;2.40;98.00;;;;;;5029258;28;20456;-66
2023/02/16 01:05:47;;;;;;;30.55;16.65;;;2.30;98.10;;;;;;5021153;28;20131;-66
2023/02/16 01:11:08;;;;;;;28.23;13.98;;;2.30;98.10;;;;;;5010260;28;20804;-66
2023/02/16 01:13:43;;;;;;;22.83;12.03;;;2.40;98.10;;;;;;5032356;28;20128;-66
2023/02/16 01:16:17;;;;;;;25.10;13.68;;;2.40;98.40;;;;;;5030710;28;20036;-66
2023/02/16 01:18:43;;;;;;;26.85;13.13;;;2.40;98.70;;;;;;5032360;28;20514;-66
2023/02/16 01:21:11;;;;;;;23.65;12.32;;;2.40;99.00;;;;;;5028693;28;20052;-65
2023/02/16 01:23:38;;;;;;;23.13;12.25;;;2.40;99.00;;;;;;5033404;28;20078;-66
2023/02/16 01:26:05;;;;;;;23.48;13.63;;;2.50;99.20;;;;;;5028816;28;20040;-66
2023/02/16 01:28:35;;;;;;;22.55;12.65;;;2.50;99.50;;;;;;5032587;28;20369;-66
2023/02/16 01:31:01;;;;;;;23.42;12.70;;;2.50;99.40;;;;;;5019942;28;20731;-65
2023/02/16 01:33:27;;;;;;;29.88;15.13;;;2.50;99.40;;;;;;5019636;28;20017;-66
2023/02/16 01:35:55;;;;;;;30.38;16.45;;;2.60;99.40;;;;;;5011143;28;20635;-66
2023/02/16 01:38:26;;;;;;;28.95;14.30;;;2.60;99.10;;;;;;5018815;28;20021;-66
2023/02/16 01:41:24;;;;;;;23.65;12.85;;;2.50;98.90;;;;;;5020013;28;20064;-66
2023/02/16 01:44:00;;;;;;;33.42;16.98;;;2.60;99.20;;;;;;5016553;28;20028;-66
2023/02/16 01:46:42;;;;;;;31.73;16.00;;;2.60;99.00;;;;;;5019267;28;20052;-66
2023/02/16 01:49:13;;;;;;;33.17;16.90;;;2.50;97.80;;;;;;5012958;28;20040;-66
2023/02/16 01:52:08;;;;;;;29.85;16.45;;;2.50;97.40;;;;;;5019745;28;20043;-66
2023/02/16 01:54:46;;;;;;;28.08;13.57;;;2.40;97.70;;;;;;4997727;28;20044;-66
2023/02/16 01:57:30;;;;;;;24.77;13.32;;;2.40;98.00;;;;;;5017331;28;20048;-66
2023/02/16 01:59:55;;;;;;;22.00;12.43;;;2.40;98.30;;;;;;5029341;28;20846;-66
2023/02/16 02:02:33;;;;;;;22.70;12.55;;;2.40;98.60;;;;;;5010625;28;20029;-66
2023/02/16 02:05:35;;;;;;;22.92;13.23;;;2.40;98.90;;;;;;5029798;28;20029;-66
2023/02/16 02:08:35;;;;;;;26.17;13.23;;;2.40;99.00;;;;;;5034276;28;20044;-66
2023/02/16 02:11:38;;;;;;;24.13;13.25;;;2.40;98.80;;;;;;5016959;28;20037;-66
2023/02/16 02:14:12;;;;;;;22.98;12.50;;;2.50;99.20;;;;;;5028506;28;20025;-66
2023/02/16 02:16:38;;;;;;;22.02;12.45;;;2.50;99.40;;;;;;5033445;28;20032;-66
2023/02/16 02:19:04;;;;;;;24.92;12.93;;;2.50;99.70;;;;;;5018328;28;20060;-66
2023/02/16 02:24:41;;;;;;;23.95;12.25;;;2.60;99.90;;;;;;5009473;28;20842;-66
2023/02/16 02:27:30;;;;;;;26.38;13.40;;;2.70;99.90;;;;;;5013438;28;20390;-66
2023/02/16 02:30:20;;;;;;;23.00;12.52;;;2.70;99.90;;;;;;5017286;28;20036;-66
2023/02/16 02:33:08;;;;;;;25.02;12.18;;;2.80;99.90;;;;;;5014056;28;20132;-66
2023/02/16 02:35:46;;;;;;;22.27;11.82;;;2.80;99.90;;;;;;5019800;28;20045;-66
2023/02/16 02:38:21;;;;;;;21.58;10.93;;;2.80;99.90;;;;;;5028793;28;20037;-66
2023/02/16 02:40:56;;;;;;;24.75;13.73;;;2.80;99.90;;;;;;5019496;28;20021;-68
2023/02/16 02:43:40;;;;;;;21.42;11.80;;;2.80;99.90;;;;;;5012140;28;20029;-66
2023/02/16 02:46:32;;;;;;;24.42;13.95;;;2.80;99.90;;;;;;5027469;28;20614;-66
2023/02/16 02:48:58;;;;;;;26.73;13.63;;;2.80;99.90;;;;;;5032759;28;20031;-64
2023/02/16 02:51:30;;;;;;;26.70;13.20;;;2.80;99.90;;;;;;5028526;28;20058;-66
2023/02/16 03:02:43;;;;;;;24.85;12.77;;;2.80;99.90;;;;;;5024892;28;20037;-66
2023/02/16 03:05:11;;;;;;;25.73;13.95;;;2.90;99.90;;;;;;5020559;28;20037;-66
2023/02/16 03:07:48;;;;;;;43.05;25.52;;;2.90;99.90;;;;;;5006587;28;20094;-67
2023/02/16 03:13:23;;;;;;;41.28;30.63;;;3.00;99.90;;;;;;5035994;28;20068;-66
2023/02/16 03:15:54;;;;;;;41.28;26.42;;;3.00;99.90;;;;;;5032630;28;20037;-66
2023/02/16 03:29:28;;;;;;;20.80;11.43;;;3.10;99.90;;;;;;5032970;28;20106;-66
2023/02/16 03:31:55;;;;;;;20.95;11.88;;;3.10;99.90;;;;;;5034715;28;20739;-66
2023/02/16 03:34:22;;;;;;;19.30;11.27;;;3.10;99.90;;;;;;5038263;28;20110;-66
2023/02/16 03:36:51;;;;;;;26.55;14.68;;;3.10;99.90;;;;;;5036004;28;20057;-66
2023/02/16 03:39:18;;;;;;;27.75;14.52;;;3.10;99.90;;;;;;5037256;28;20033;-66
2023/02/16 03:41:50;;;;;;;23.63;12.18;;;3.20;99.90;;;;;;5034548;28;20123;-66
2023/02/16 03:44:16;;;;;;;22.38;12.02;;;3.20;99.90;;;;;;5036502;28;20647;-66
2023/02/16 03:46:42;;;;;;;23.52;12.65;;;3.20;99.90;;;;;;5035875;28;20037;-66
2023/02/16 03:49:08;;;;;;;23.60;11.38;;;3.10;99.90;;;;;;5032499;28;20843;-66
2023/02/16 03:51:33;;;;;;;23.20;12.65;;;3.10;99.90;;;;;;5038279;28;20567;-66
2023/02/16 03:54:00;;;;;;;28.38;12.98;;;3.10;99.90;;;;;;5035143;28;20053;-65
2023/02/16 03:56:26;;;;;;;19.67;11.13;;;3.10;99.90;;;;;;5038410;28;20071;-66
2023/02/16 03:58:52;;;;;;;28.25;14.90;;;3.10;99.90;;;;;;5036405;28;20040;-65
2023/02/16 04:01:18;;;;;;;24.20;13.02;;;3.10;99.90;;;;;;5037560;28;20021;-65
2023/02/16 04:03:44;;;;;;;27.02;13.48;;;3.10;99.90;;;;;;5034117;28;20873;-66
2023/02/16 04:06:09;;;;;;;20.70;11.57;;;3.10;99.90;;;;;;5034457;28;20568;-65
2023/02/16 04:08:35;;;;;;;25.17;12.48;;;3.10;99.90;;;;;;5034783;28;20033;-65
2023/02/16 04:12:34;;;;;;;20.20;11.27;;;3.10;99.90;;;;;;5031792;28;20124;-65
2023/02/16 04:13:48;;;;;;;21.35;11.15;;;3.10;99.90;;;;;;5037148;28;20021;-66
2023/02/16 04:16:13;;;;;;;20.27;11.50;;;3.10;99.90;;;;;;5037942;28;20052;-65
2023/02/16 04:18:39;;;;;;;20.40;10.15;;;3.10;99.90;;;;;;5036916;28;20021;-66
2023/02/16 04:21:05;;;;;;;22.98;12.10;;;3.10;99.90;;;;;;5034809;28;20036;-65
2023/02/16 04:23:30;;;;;;;20.35;10.88;;;3.20;99.90;;;;;;5035781;28;20033;-66
2023/02/16 04:25:56;;;;;;;20.65;10.32;;;3.20;99.90;;;;;;5039948;28;20108;-66
2023/02/16 04:28:22;;;;;;;20.73;10.23;;;3.20;99.90;;;;;;5034731;28;20029;-66
2023/02/16 04:30:48;;;;;;;21.48;12.05;;;3.10;99.90;;;;;;5034239;28;20017;-65
2023/02/16 04:33:13;;;;;;;18.17;10.60;;;3.20;99.90;;;;;;5030778;28;20098;-65
2023/02/16 04:35:39;;;;;;;20.23;10.82;;;3.20;99.90;;;;;;5033213;28;20548;-65
2023/02/16 04:38:06;;;;;;;20.95;12.07;;;3.20;99.90;;;;;;5035313;28;20583;-65
2023/02/16 04:40:32;;;;;;;21.92;11.70;;;3.20;99.90;;;;;;5037226;28;20044;-66
2023/02/16 04:42:58;;;;;;;19.05;9.98;;;3.20;99.90;;;;;;5034125;28;20032;-66
2023/02/16 04:45:23;;;;;;;17.55;10.55;;;3.10;99.90;;;;;;5035541;28;20488;-66
2023/02/16 04:47:49;;;;;;;20.75;11.18;;;3.10;99.90;;;;;;5036714;28;20378;-65
2023/02/16 04:50:15;;;;;;;19.92;11.32;;;3.10;99.90;;;;;;5036587;28;20033;-66
2023/02/16 04:52:41;;;;;;;21.30;11.23;;;3.10;99.90;;;;;;5031327;28;20032;-65
2023/02/16 04:55:09;;;;;;;22.52;11.75;;;3.10;99.90;;;;;;5032465;28;20021;-65
2023/02/16 04:57:39;;;;;;;20.88;11.93;;;3.10;99.90;;;;;;5036191;28;20610;-66
2023/02/16 05:00:07;;;;;;;19.13;10.68;;;3.10;99.90;;;;;;5028515;28;20467;-64
2023/02/16 05:02:33;;;;;;;22.92;11.38;;;3.10;99.90;;;;;;5035074;28;20025;-65
2023/02/16 05:04:58;;;;;;;20.30;10.07;;;3.10;99.90;;;;;;5034198;28;20830;-65
2023/02/16 05:07:24;;;;;;;20.98;10.70;;;3.10;99.90;;;;;;5034361;28;20037;-65
2023/02/16 05:09:50;;;;;;;22.08;12.05;;;3.00;99.90;;;;;;5030156;28;20032;-65
2023/02/16 05:15:00;;;;;;;21.90;12.00;;;3.00;99.90;;;;;;5033452;28;20030;-65
2023/02/16 05:17:26;;;;;;;20.75;10.70;;;3.00;99.90;;;;;;5028778;28;20029;-65
2023/02/16 05:19:55;;;;;;;19.08;10.57;;;3.00;99.90;;;;;;5033729;28;20028;-65
2023/02/16 05:22:21;;;;;;;18.27;10.82;;;3.00;99.90;;;;;;5032670;28;20060;-65
2023/02/16 05:24:48;;;;;;;23.27;11.18;;;3.00;99.90;;;;;;5032136;28;20581;-65
2023/02/16 05:27:23;;;;;;;22.65;10.65;;;3.00;99.90;;;;;;5027578;28;20087;-65
2023/02/16 05:29:49;;;;;;;21.25;10.45;;;3.00;99.90;;;;;;5033905;28;20112;-65
2023/02/16 05:32:15;;;;;;;23.45;11.75;;;3.00;99.90;;;;;;5032533;28;20578;-65
2023/02/16 05:34:43;;;;;;;22.05;11.13;;;3.00;99.90;;;;;;5030046;28;20029;-65
2023/02/16 05:37:09;;;;;;;20.67;10.88;;;3.00;99.90;;;;;;5032185;28;20647;-65
2023/02/16 05:39:34;;;;;;;26.85;11.18;;;3.00;99.90;;;;;;5031304;28;20028;-65
2023/02/16 05:42:00;;;;;;;20.13;11.02;;;3.00;99.90;;;;;;5029846;28;20069;-65
2023/02/16 05:44:26;;;;;;;22.98;12.40;;;3.00;99.90;;;;;;5028994;28;20141;-65
2023/02/16 05:46:52;;;;;;;21.27;11.07;;;3.00;99.90;;;;;;5027582;28;20035;-65
2023/02/16 05:49:18;;;;;;;19.48;10.18;;;3.00;99.90;;;;;;5027389;28;20493;-65
2023/02/16 05:51:44;;;;;;;21.25;11.10;;;3.00;99.90;;;;;;5028586;28;20760;-65
2023/02/16 05:54:15;;;;;;;21.02;11.15;;;3.00;99.90;;;;;;5028961;28;20033;-65
2023/02/16 05:56:43;;;;;;;19.13;11.35;;;3.00;99.90;;;;;;5025284;28;20029;-65
2023/02/16 05:59:09;;;;;;;21.80;12.00;;;2.90;99.90;;;;;;5030190;28;20480;-65
2023/02/16 06:01:35;;;;;;;21.75;12.38;;;2.90;99.90;;;;;;5031971;28;20044;-65
2023/02/16 06:04:01;;;;;;;21.90;11.00;;;2.90;99.90;;;;;;5030834;28;20051;-66
2023/02/16 06:06:26;;;;;;;22.42;11.15;;;2.90;99.90;;;;;;5029759;28;20084;-66
2023/02/16 06:08:52;;;;;;;20.60;10.63;;;2.90;99.90;;;;;;5034673;28;20077;-65
2023/02/16 06:11:36;;;;;;;22.10;11.50;;;2.90;99.90;;;;;;5030477;28;20067;-65
2023/02/16 06:14:11;;;;;;;24.30;11.88;;;2.90;99.90;;;;;;5028670;28;20044;-65
2023/02/16 06:16:39;;;;;;;18.00;9.93;;;2.90;99.90;;;;;;5032158;28;20098;-64
2023/02/16 06:19:05;;;;;;;19.63;10.50;;;2.90;99.90;;;;;;5026261;28;20025;-65
2023/02/16 06:21:31;;;;;;;21.08;10.40;;;2.90;99.90;;;;;;5026356;28;20029;-64
2023/02/16 06:23:57;;;;;;;20.52;11.07;;;2.90;99.90;;;;;;5028131;28;20554;-65
2023/02/16 06:26:24;;;;;;;22.52;11.23;;;2.80;99.90;;;;;;5033567;28;20040;-65
2023/02/16 06:28:49;;;;;;;20.30;10.52;;;2.90;99.90;;;;;;5032448;28;20037;-65
2023/02/16 06:31:16;;;;;;;20.35;10.38;;;2.90;99.90;;;;;;5030090;28;20021;-65
2023/02/16 06:33:42;;;;;;;19.27;10.23;;;2.90;99.90;;;;;;5031750;28;20024;-64
2023/02/16 06:36:08;;;;;;;27.25;14.68;;;2.90;99.90;;;;;;5029407;28;20029;-64
2023/02/16 06:38:34;;;;;;;29.00;14.07;;;2.90;99.90;;;;;;5029732;28;20037;-65
2023/02/16 06:41:00;;;;;;;29.52;14.02;;;2.90;99.90;;;;;;5030777;28;20037;-66
2023/02/16 06:43:26;;;;;;;23.17;12.60;;;2.90;99.90;;;;;;5034509;28;20033;-65
2023/02/16 06:45:51;;;;;;;28.33;13.02;;;2.90;99.90;;;;;;5030516;28;20029;-65
2023/02/16 06:48:17;;;;;;;26.17;12.48;;;3.00;99.90;;;;;;5032103;28;20025;-65
2023/02/16 06:50:43;;;;;;;21.65;11.68;;;3.00;99.90;;;;;;5036723;28;20072;-67
2023/02/16 06:53:09;;;;;;;23.85;11.95;;;3.10;99.90;;;;;;5024392;28;20114;-66
2023/02/16 06:55:35;;;;;;;26.27;12.65;;;3.10;99.90;;;;;;5020614;28;20026;-66
2023/02/16 06:58:05;;;;;;;25.95;12.77;;;3.10;99.90;;;;;;5035917;28;20041;-65
2023/02/16 07:00:31;;;;;;;30.45;15.35;;;3.10;99.90;;;;;;5036139;28;20560;-65
2023/02/16 07:02:57;;;;;;;23.08;12.35;;;3.20;99.90;;;;;;5033339;28;20040;-65
2023/02/16 07:05:23;;;;;;;26.70;13.57;;;3.20;99.90;;;;;;5019069;28;20037;-65
2023/02/16 07:07:49;;;;;;;24.38;11.75;;;3.30;99.90;;;;;;5035428;28;20507;-66
2023/02/16 07:10:15;;;;;;;27.23;12.52;;;3.30;99.90;;;;;;5038357;28;20033;-66
2023/02/16 07:12:41;;;;;;;22.98;11.55;;;3.40;99.90;;;;;;5037739;28;20025;-66
2023/02/16 07:15:08;;;;;;;22.38;11.57;;;3.40;99.90;;;;;;5031242;28;20822;-66
2023/02/16 07:17:33;;;;;;;23.02;12.75;;;3.40;99.90;;;;;;5036835;28;20025;-65
2023/02/16 07:19:59;;;;;;;27.20;15.90;;;3.40;99.90;;;;;;5038779;28;20048;-67
2023/02/16 07:22:26;;;;;;;30.38;15.32;;;3.50;99.90;;;;;;5035790;28;20037;-66
2023/02/16 07:24:54;;;;;;;27.40;13.25;;;3.50;99.90;;;;;;5035531;28;20725;-66
2023/02/16 07:27:20;;;;;;;27.30;13.40;;;3.60;99.90;;;;;;5039487;28;20044;-66
2023/02/16 07:29:46;;;;;;;25.98;13.25;;;3.70;99.90;;;;;;5038040;28;20108;-66
2023/02/16 07:32:12;;;;;;;26.65;12.30;;;3.70;99.90;;;;;;5036138;28;20036;-65
2023/02/16 07:34:37;;;;;;;27.08;12.98;;;3.80;99.90;;;;;;5033205;28;20033;-65
2023/02/16 07:37:04;;;;;;;26.10;13.23;;;3.80;99.90;;;;;;5038036;28;20537;-65
2023/02/16 07:39:30;;;;;;;29.35;14.38;;;3.90;99.90;;;;;;5034966;28;20025;-65
2023/02/16 07:41:56;;;;;;;27.85;14.07;;;4.00;99.80;;;;;;5036482;28;20037;-65
2023/02/16 07:44:24;;;;;;;29.10;13.98;;;4.00;99.60;;;;;;5021256;28;20815;-65
2023/02/16 07:46:50;;;;;;;24.92;13.07;;;4.10;99.50;;;;;;5040564;28;20052;-66
2023/02/16 07:49:16;;;;;;;23.48;12.20;;;4.20;99.50;;;;;;5034744;28;20033;-66
2023/02/16 07:51:42;;;;;;;25.83;13.15;;;4.20;99.40;;;;;;5035932;28;20029;-65
2023/02/16 07:54:07;;;;;;;27.55;13.05;;;4.30;99.40;;;;;;5033289;28;20497;-65
2023/02/16 07:56:34;;;;;;;25.77;13.18;;;4.30;99.20;;;;;;5036725;28;20107;-65
2023/02/16 07:59:01;;;;;;;27.77;13.32;;;4.40;99.20;;;;;;5034415;28;20029;-65
2023/02/16 08:01:28;;;;;;;28.15;13.18;;;4.50;98.90;;;;;;5031077;28;20033;-65
2023/02/16 08:03:54;;;;;;;26.30;12.75;;;4.60;98.70;;;;;;5030346;28;20388;-65
2023/02/16 08:06:20;;;;;;;25.88;12.48;;;4.70;98.40;;;;;;5033399;28;20025;-64
2023/02/16 08:08:47;;;;;;;25.45;14.63;;;4.90;98.20;;;;;;5035065;28;20025;-65
2023/02/16 08:11:17;;;;;;;30.40;15.80;;;5.00;98.20;;;;;;5033479;28;20026;-64
2023/02/16 08:13:43;;;;;;;27.83;14.68;;;5.10;98.00;;;;;;5036298;28;20751;-65
2023/02/16 08:16:10;;;;;;;26.25;14.00;;;5.20;97.90;;;;;;5034512;28;20026;-65
2023/02/16 08:18:37;;;;;;;25.80;12.88;;;5.20;97.80;;;;;;5032650;28;20033;-64
2023/02/16 08:21:12;;;;;;;29.05;14.20;;;5.30;97.90;;;;;;5034408;28;20128;-62
2023/02/16 08:23:46;;;;;;;27.97;13.27;;;5.30;97.90;;;;;;5033179;28;20669;-64
2023/02/16 08:26:14;;;;;;;25.90;13.73;;;5.40;98.00;;;;;;5034564;28;20755;-64
2023/02/16 08:28:44;;;;;;;25.23;13.23;;;5.60;98.10;;;;;;5032520;28;20029;-64
2023/02/16 08:31:16;;;;;;;24.45;13.52;;;5.90;98.30;;;;;;5035107;28;20090;-66
2023/02/16 08:33:42;;;;;;;23.50;12.45;;;6.20;97.40;;;;;;5034134;28;20041;-63
2023/02/16 08:36:28;;;;;;;26.35;13.18;;;6.40;96.80;;;;;;5031495;28;20092;-63
2023/02/16 08:38:54;;;;;;;24.50;12.38;;;6.60;96.30;;;;;;5032694;28;20033;-63
2023/02/16 08:41:27;;;;;;;28.48;13.73;;;6.80;95.80;;;;;;5034341;28;20136;-63
2023/02/16 08:43:54;;;;;;;28.00;14.27;;;7.00;95.40;;;;;;5032757;28;20142;-63
2023/02/16 08:46:20;;;;;;;22.90;13.20;;;7.20;94.70;;;;;;5040286;28;20037;-63
2023/02/16 08:48:46;;;;;;;25.88;13.25;;;7.30;94.30;;;;;;5039838;28;20032;-63
2023/02/16 08:51:14;;;;;;;31.60;15.63;;;7.40;94.10;;;;;;5043404;28;20827;-64
2023/02/16 08:53:40;;;;;;;23.30;12.93;;;7.40;94.20;;;;;;5033888;28;20031;-63
2023/02/16 08:56:08;;;;;;;23.08;13.27;;;7.40;93.90;;;;;;5034603;28;20037;-63
2023/02/16 08:58:36;;;;;;;26.60;14.05;;;7.30;94.10;;;;;;5027414;28;20084;-63
2023/02/16 09:01:07;;;;;;;29.40;14.35;;;7.30;94.40;;;;;;5038764;28;20029;-64
2023/02/16 09:03:34;;;;;;;26.85;14.18;;;7.30;94.40;;;;;;5037396;28;20522;-64
2023/02/16 09:06:03;;;;;;;30.08;13.77;;;7.40;94.00;;;;;;5027058;28;20531;-63
2023/02/16 09:08:29;;;;;;;26.08;13.10;;;7.50;94.30;;;;;;5034440;28;20090;-63
2023/02/16 09:10:59;;;;;;;33.72;16.42;;;7.40;93.70;;;;;;5033808;28;20037;-63
2023/02/16 09:13:25;;;;;;;29.60;15.13;;;7.40;94.00;;;;;;5033883;28;20035;-66
2023/02/16 09:15:52;;;;;;;33.45;16.20;;;7.70;93.80;;;;;;5020402;28;20040;-66
2023/02/16 09:18:17;;;;;;;37.58;20.27;;;7.90;93.30;;;;;;5035379;28;20045;-66
2023/02/16 09:20:44;;;;;;;45.45;23.92;;;8.20;92.40;;;;;;5032091;28;20033;-66
2023/02/16 09:23:13;;;;;;;44.20;21.05;;;8.40;91.70;;;;;;5032495;28;20077;-66
2023/02/16 09:25:42;;;;;;;50.60;23.75;;;8.60;91.60;;;;;;5035131;28;20147;-66
2023/02/16 09:28:09;;;;;;;39.58;19.08;;;8.90;91.40;;;;;;5035670;28;20029;-66
2023/02/16 09:30:37;;;;;;;33.25;15.60;;;9.10;90.80;;;;;;5033312;28;20029;-66
2023/02/16 09:33:03;;;;;;;39.00;18.77;;;9.20;88.80;;;;;;5026436;28;20060;-66
2023/02/16 09:35:29;;;;;;;35.58;18.05;;;9.10;89.70;;;;;;5032199;28;20105;-66
2023/02/16 09:37:56;;;;;;;40.03;19.80;;;9.40;88.00;;;;;;5027409;28;20056;-66
2023/02/16 09:40:23;;;;;;;51.83;25.23;;;10.50;85.10;;;;;;5035122;28;20651;-66
2023/02/16 09:43:12;;;;;;;44.47;21.67;;;11.80;77.00;;;;;;5033416;28;20716;-66
2023/02/16 09:45:44;;;;;;;26.02;14.27;;;13.20;72.30;;;;;;5033818;28;20108;-66
2023/02/16 09:48:35;;;;;;;37.53;18.83;;;14.10;66.00;;;;;;5029810;28;20041;-66
2023/02/16 09:51:04;;;;;;;43.08;20.85;;;15.00;61.90;;;;;;5036865;28;20039;-66
2023/02/16 09:53:38;;;;;;;46.00;21.42;;;15.80;59.80;;;;;;5030917;28;20040;-66
2023/02/16 09:56:33;;;;;;;44.60;22.98;;;15.80;57.90;;;;;;5029630;28;20032;-66
2023/02/16 09:59:23;;;;;;;37.13;18.95;;;15.60;57.90;;;;;;5032339;28;20033;-66
2023/02/16 10:02:14;;;;;;;40.95;20.67;;;15.30;58.50;;;;;;5033246;28;20644;-66
2023/02/16 10:05:12;;;;;;;47.15;23.42;;;15.50;57.50;;;;;;5031518;28;20120;-66
2023/02/16 10:07:55;;;;;;;45.65;23.88;;;15.50;57.00;;;;;;5020677;28;20049;-66
2023/02/16 10:10:28;;;;;;;41.42;21.40;;;15.70;56.80;;;;;;5030716;28;20037;-66
2023/02/16 10:13:16;;;;;;;33.80;17.75;;;15.40;57.50;;;;;;5034512;28;20051;-67
2023/02/16 10:15:44;;;;;;;47.30;21.25;;;15.50;58.20;;;;;;5030224;28;20098;-66
2023/02/16 10:18:16;;;;;;;30.58;16.30;;;15.30;56.90;;;;;;5030346;28;20094;-66
2023/02/16 10:20:48;;;;;;;37.65;17.20;;;15.20;56.80;;;;;;5029252;28;20147;-66
2023/02/16 10:23:30;;;;;;;37.67;19.60;;;15.20;58.00;;;;;;5029612;28;20029;-66
2023/02/16 10:26:03;;;;;;;42.72;19.55;;;15.20;57.50;;;;;;5028044;28;20118;-66
2023/02/16 10:28:49;;;;;;;46.95;23.88;;;15.20;56.90;;;;;;5029791;28;20044;-66
2023/02/16 10:31:18;;;;;;;32.42;18.02;;;15.20;59.20;;;;;;5031710;28;20037;-66
2023/02/16 10:34:23;;;;;;;34.33;17.95;;;15.10;56.80;;;;;;5034740;28;20112;-66
2023/02/16 10:37:08;;;;;;;48.80;23.27;;;15.00;58.40;;;;;;4992367;28;20521;-67
2023/02/16 10:39:55;;;;;;;31.48;15.15;;;15.40;56.70;;;;;;5031527;28;20025;-66
2023/02/16 10:42:40;;;;;;;43.55;21.23;;;15.60;55.30;;;;;;5043491;28;20124;-67
2023/02/16 10:45:36;;;;;;;46.50;26.33;;;16.10;54.70;;;;;;5041068;28;20037;-66
2023/02/16 10:48:01;;;;;;;29.73;16.35;;;16.60;54.50;;;;;;5035290;28;20037;-66
2023/02/16 10:50:51;;;;;;;29.40;14.77;;;16.70;52.60;;;;;;5038905;28;20804;-67
2023/02/16 10:53:58;;;;;;;35.33;20.02;;;17.00;52.90;;;;;;5032208;28;20040;-68
2023/02/16 10:56:39;;;;;;;34.67;17.23;;;17.70;51.40;;;;;;5023843;28;20037;-67
2023/02/16 10:59:20;;;;;;;31.15;17.45;;;18.10;50.20;;;;;;5036393;28;20028;-67
2023/02/16 11:01:49;;;;;;;27.52;14.20;;;18.20;48.80;;;;;;5036673;28;20024;-66
2023/02/16 11:04:35;;;;;;;23.02;13.30;;;18.30;49.50;;;;;;5035165;28;20507;-66
2023/02/16 11:07:21;;;;;;;30.75;16.65;;;18.30;49.50;;;;;;5033637;28;20040;-66
2023/02/16 11:10:00;;;;;;;26.98;13.18;;;18.50;48.90;;;;;;5033994;28;20194;-66
2023/02/16 11:12:40;;;;;;;27.30;14.50;;;18.70;48.80;;;;;;5030772;28;20535;-66
2023/02/16 11:15:16;;;;;;;22.77;13.45;;;18.60;46.10;;;;;;5033584;28;20488;-66
2023/02/16 11:17:48;;;;;;;29.00;15.45;;;18.40;47.70;;;;;;5034247;28;20083;-66
2023/02/16 11:20:35;;;;;;;29.88;15.35;;;18.20;46.60;;;;;;5029125;28;20083;-66
2023/02/16 11:23:24;;;;;;;29.20;15.20;;;17.30;48.80;;;;;;5033343;28;20520;-65
2023/02/16 11:26:04;;;;;;;27.48;14.70;;;16.70;49.70;;;;;;5037966;28;20033;-66
2023/02/16 11:28:32;;;;;;;30.25;14.85;;;17.00;50.10;;;;;;5028235;28;20026;-66
2023/02/16 11:31:10;;;;;;;26.50;14.20;;;16.60;51.40;;;;;;5033854;28;20063;-66
2023/02/16 11:33:37;;;;;;;28.30;14.98;;;15.80;53.50;;;;;;5035562;28;20052;-67
2023/02/16 11:36:17;;;;;;;30.05;14.98;;;15.10;54.10;;;;;;5031147;28;20539;-69
2023/02/16 11:39:00;;;;;;;29.08;14.80;;;14.70;56.90;;;;;;5035379;28;20036;-69
2023/02/16 11:41:27;;;;;;;27.70;14.82;;;14.40;56.10;;;;;;5028578;28;20370;-66
2023/02/16 11:43:54;;;;;;;28.80;15.02;;;13.90;58.40;;;;;;5034028;28;20037;-66
2023/02/16 11:46:21;;;;;;;26.13;14.35;;;13.80;58.90;;;;;;5034289;28;20810;-65
2023/02/16 11:48:47;;;;;;;26.98;14.60;;;13.50;58.50;;;;;;5032205;28;20670;-69
2023/02/16 11:51:15;;;;;;;26.50;14.43;;;13.40;60.30;;;;;;5029382;28;20037;-69
2023/02/16 11:53:43;;;;;;;25.30;13.45;;;13.50;60.70;;;;;;5031906;28;20072;-67
2023/02/16 11:56:22;;;;;;;29.95;14.70;;;13.60;60.80;;;;;;5031964;28;20045;-65
2023/02/16 11:59:04;;;;;;;27.55;13.90;;;13.70;61.20;;;;;;5032574;28;20138;-67
2023/02/16 12:01:51;;;;;;;26.30;13.98;;;13.90;60.80;;;;;;5031947;28;20036;-71
2023/02/16 12:04:46;;;;;;;26.60;13.48;;;14.00;60.10;;;;;;5033206;28;20037;-67
2023/02/16 12:07:25;;;;;;;29.63;15.23;;;14.20;60.20;;;;;;5032270;28;20072;-67
2023/02/16 12:10:29;;;;;;;35.33;14.05;;;14.10;59.10;;;;;;5032812;28;20033;-67
2023/02/16 12:13:07;;;;;;;24.38;13.10;;;14.10;59.40;;;;;;5035230;28;20052;-67
2023/02/16 12:15:54;;;;;;;35.55;17.17;;;14.10;59.50;;;;;;5032089;28;20100;-67
2023/02/16 12:18:39;;;;;;;29.20;15.75;;;14.10;59.10;;;;;;5035232;28;20029;-67
2023/02/16 12:21:23;;;;;;;29.25;16.50;;;14.20;59.60;;;;;;5034712;28;20104;-67
2023/02/16 12:24:03;;;;;;;29.17;17.58;;;14.30;59.30;;;;;;5031068;28;20036;-67
2023/02/16 12:26:38;;;;;;;48.20;30.88;;;14.40;59.70;;;;;;5031037;28;20145;-67
2023/02/16 12:29:22;;;;;;;33.13;17.95;;;14.50;58.00;;;;;;5031480;28;20060;-68
2023/02/16 12:32:15;;;;;;;56.67;37.72;;;14.60;59.20;;;;;;5036301;28;20489;-68
2023/02/16 12:35:01;;;;;;;33.38;18.38;;;14.70;58.40;;;;;;5039713;28;20032;-68
2023/02/16 12:37:30;;;;;;;51.72;25.20;;;14.70;58.90;;;;;;5032607;28;20141;-68
2023/02/16 12:40:42;;;;;;;27.15;16.55;;;14.50;58.20;;;;;;5033493;28;20108;-68
2023/02/16 12:43:26;;;;;;;31.75;17.88;;;14.50;58.40;;;;;;5020788;28;20049;-68
2023/02/16 12:45:55;;;;;;;30.52;14.77;;;14.60;59.00;;;;;;5030640;28;20057;-68
2023/02/16 12:48:48;;;;;;;27.48;14.10;;;14.70;59.10;;;;;;5036179;28;20038;-68
2023/02/16 12:51:29;;;;;;;23.92;13.85;;;14.60;57.60;;;;;;5027419;28;20508;-68
2023/02/16 12:54:03;;;;;;;24.30;12.63;;;14.60;59.10;;;;;;5027357;28;20477;-68
2023/02/16 12:56:50;;;;;;;25.92;12.00;;;14.60;58.50;;;;;;5029945;28;20097;-68
2023/02/16 12:59:32;;;;;;;29.10;14.73;;;14.60;58.70;;;;;;5027920;28;20061;-67
2023/02/16 13:02:00;;;;;;;37.78;18.05;;;14.60;58.70;;;;;;5033938;28;20033;-67
2023/02/16 13:04:35;;;;;;;31.52;16.63;;;14.60;58.80;;;;;;5028691;28;20025;-67
2023/02/16 13:07:21;;;;;;;30.10;14.75;;;14.50;59.70;;;;;;5033792;28;20040;-67
2023/02/16 13:10:13;;;;;;;36.75;17.83;;;14.40;59.60;;;;;;5032622;28;20547;-67
2023/02/16 13:12:47;;;;;;;25.15;13.65;;;14.50;59.80;;;;;;5029289;28;20036;-67
2023/02/16 13:15:13;;;;;;;40.63;19.45;;;14.40;59.90;;;;;;5029681;28;20033;-67
2023/02/16 13:17:46;;;;;;;33.42;16.05;;;14.40;59.40;;;;;;5030816;28;20106;-67
2023/02/16 13:20:20;;;;;;;44.30;20.00;;;14.30;58.60;;;;;;5034696;28;20048;-67
2023/02/16 13:23:11;;;;;;;30.55;15.40;;;14.10;59.60;;;;;;5034064;28;20556;-67
2023/02/16 13:25:56;;;;;;;24.58;12.13;;;14.00;60.60;;;;;;5031466;28;20524;-67
2023/02/16 13:28:39;;;;;;;27.52;12.27;;;14.00;60.80;;;;;;5034004;28;20048;-67
2023/02/16 13:31:39;;;;;;;23.40;12.07;;;14.00;60.80;;;;;;5033704;28;20087;-67
2023/02/16 13:34:28;;;;;;;24.10;13.60;;;14.00;60.60;;;;;;5027825;28;20037;-67
2023/02/16 13:37:36;;;;;;;21.25;12.27;;;14.10;61.10;;;;;;5029436;28;20572;-67